Time;durP1;ratioP1;P1;durP2;ratioP2;P2;SDS_P1;SDS_P2;PMS_P1;PMS_P2;Temp;Humidity;BMP_temperature;BMP_pressure;BME280_temperature;BME280_humidity;BME280_pressure;Samples;Min_cycle;Max_cycle;Signal;HPM_P1;HPM_P2
2023/10/09 02:28:58;;;;;;;;;;;15.70;99.90;;;;;;2623061;54;19966;-76
2023/10/09 02:31:35;;;;;;;;;;;15.70;99.90;;;;;;2622818;54;19951;-75
2023/10/09 02:34:11;;;;;;;;;;;15.70;99.90;;;;;;2622429;47;20020;-76
2023/10/09 02:36:48;;;;;;;;;;;15.70;99.90;;;;;;2622343;47;19946;-76
2023/10/09 02:39:24;;;;;;;;;;;15.70;99.90;;;;;;2622894;47;20014;-75
2023/10/09 02:41:58;;;;;;;;;;;15.60;99.90;;;;;;2622033;39;20325;-75
2023/10/09 02:44:34;;;;;;;;;;;15.60;99.90;;;;;;2621925;47;19987;-75
2023/10/09 02:47:05;;;;;;;;;;;15.60;99.90;;;;;;2622597;47;19946;-76
2023/10/09 02:49:38;;;;;;;;;;;15.60;99.90;;;;;;2623762;39;20002;-76
2023/10/09 02:52:08;;;;;;;;;;;15.60;99.90;;;;;;2620706;47;19951;-77
2023/10/09 02:54:41;;;;;;;;;;;15.60;99.90;;;;;;2621632;54;20002;-78
2023/10/09 02:57:21;;;;;;;;;;;15.60;99.90;;;;;;2620451;47;19946;-81
2023/10/09 02:59:54;;;;;;;;;;;15.60;99.90;;;;;;2620456;54;19946;-77
2023/10/09 03:02:24;;;;;;;;;;;15.60;99.90;;;;;;2627716;47;19950;-80
2023/10/09 03:04:55;;;;;;;;;;;15.60;99.90;;;;;;2618416;54;20037;-81
2023/10/09 03:07:25;;;;;;;;;;;15.60;99.90;;;;;;2618248;39;20366;-77
2023/10/09 03:09:55;;;;;;;;;;;15.60;99.90;;;;;;2619470;54;19955;-76
2023/10/09 03:12:27;;;;;;;;;;;15.60;99.90;;;;;;2619742;47;19960;-77
2023/10/09 03:15:02;;;;;;;;;;;15.50;99.90;;;;;;2618848;47;20055;-78
2023/10/09 03:17:34;;;;;;;;;;;15.30;99.90;;;;;;2619264;54;19945;-77
2023/10/09 03:20:12;;;;;;;;;;;15.60;99.90;;;;;;2621469;54;19946;-77
2023/10/09 03:22:42;;;;;;;;;;;15.60;99.90;;;;;;2621165;47;19954;-76
2023/10/09 03:25:16;;;;;;;;;;;15.50;99.90;;;;;;2618900;39;20798;-76
2023/10/09 03:27:47;;;;;;;;;;;15.50;99.90;;;;;;2618550;47;20819;-77
2023/10/09 03:30:22;;;;;;;;;;;15.50;99.90;;;;;;2618592;47;19938;-76
2023/10/09 03:32:53;;;;;;;;;;;15.50;99.90;;;;;;2619724;39;20333;-77
2023/10/09 03:35:27;;;;;;;;;;;15.50;99.90;;;;;;2618407;47;20681;-76
2023/10/09 03:38:00;;;;;;;;;;;15.50;99.90;;;;;;2618818;47;19994;-77
2023/10/09 03:40:32;;;;;;;;;;;15.50;99.90;;;;;;2619232;47;20744;-77
2023/10/09 03:43:01;;;;;;;;;;;15.50;99.90;;;;;;2618270;54;19946;-77
2023/10/09 03:45:35;;;;;;;;;;;15.50;99.90;;;;;;2618617;54;20497;-81
2023/10/09 03:48:22;;;;;;;;;;;15.50;99.90;;;;;;2619210;39;20638;-81
2023/10/09 03:51:07;;;;;;;;;;;15.50;99.90;;;;;;2619279;47;19946;-77
2023/10/09 03:53:39;;;;;;;;;;;15.50;99.90;;;;;;2618928;47;19971;-79
2023/10/09 03:56:11;;;;;;;;;;;15.50;99.90;;;;;;2619458;39;20347;-77
2023/10/09 03:58:42;;;;;;;;;;;15.50;99.90;;;;;;2619089;47;19938;-77
2023/10/09 04:01:22;;;;;;;;;;;15.50;99.90;;;;;;2619877;47;19950;-78
2023/10/09 04:03:54;;;;;;;;;;;15.50;99.90;;;;;;2623799;54;19972;-76
2023/10/09 04:09:27;;;;;;;;;;;15.50;99.90;;;;;;2623320;54;19927;-81
2023/10/09 04:12:13;;;;;;;;;;;15.50;99.90;;;;;;2629695;54;19949;-79
2023/10/09 04:14:49;;;;;;;;;;;15.50;99.90;;;;;;2628987;47;19945;-82
2023/10/09 04:17:41;;;;;;;;;;;15.50;99.90;;;;;;2626873;47;19953;-72
2023/10/09 04:20:51;;;;;;;;;;;15.50;99.90;;;;;;2616860;54;19946;-72
2023/10/09 04:23:16;;;;;;;;;;;15.50;99.90;;;;;;2614625;54;19946;-72
2023/10/09 04:25:50;;;;;;;;;;;15.50;99.90;;;;;;2616235;54;19950;-70
2023/10/09 04:28:22;;;;;;;;;;;15.50;99.90;;;;;;2615901;54;19953;-70
2023/10/09 04:30:58;;;;;;;;;;;15.50;99.90;;;;;;2615447;54;20037;-70
2023/10/09 04:33:40;;;;;;;;;;;15.50;99.90;;;;;;2616777;54;19954;-70
2023/10/09 04:36:21;;;;;;;;;;;15.50;99.90;;;;;;2617314;54;19995;-69
2023/10/09 04:42:17;;;;;;;;;;;15.50;99.90;;;;;;2615282;50;20076;-70
2023/10/09 04:47:49;;;;;;;;;;;15.50;99.90;;;;;;2616564;54;19969;-69
2023/10/09 04:53:22;;;;;;;;;;;15.40;99.90;;;;;;2614779;39;20330;-69
2023/10/09 04:56:04;;;;;;;;;;;15.40;99.90;;;;;;2616304;54;19946;-68
2023/10/09 04:58:39;;;;;;;;;;;15.50;99.90;;;;;;2616560;54;20433;-70
2023/10/09 05:01:16;;;;;;;;;;;15.50;99.90;;;;;;2616080;54;20430;-69
2023/10/09 05:03:53;;;;;;;;;;;15.50;99.90;;;;;;2616082;54;19969;-71
2023/10/09 05:09:13;;;;;;;;;;;15.50;99.90;;;;;;2614880;54;19953;-69
2023/10/09 05:11:53;;;;;;;;;;;15.50;99.90;;;;;;2615852;46;19946;-70
2023/10/09 05:14:38;;;;;;;;;;;15.50;99.90;;;;;;2616332;54;20524;-70
2023/10/09 05:17:15;;;;;;;;;;;15.40;99.90;;;;;;2617230;39;20349;-69
2023/10/09 05:19:54;;;;;;;;;;;15.50;99.90;;;;;;2617015;54;20483;-70
2023/10/09 05:22:36;;;;;;;;;;;15.40;99.90;;;;;;2615443;46;19950;-69
2023/10/09 05:25:15;;;;;;;;;;;15.40;99.90;;;;;;2616570;54;20000;-69
2023/10/09 05:27:50;;;;;;;;;;;15.40;99.90;;;;;;2617048;54;19945;-70
2023/10/09 05:30:33;;;;;;;;;;;15.40;99.90;;;;;;2616408;47;20205;-70
2023/10/09 05:36:05;;;;;;;;;;;15.40;99.90;;;;;;2615837;54;19947;-69
2023/10/09 05:38:46;;;;;;;;;;;15.40;99.90;;;;;;2616289;54;19968;-70
2023/10/09 05:47:03;;;;;;;;;;;15.40;99.90;;;;;;2615961;47;19946;-70
2023/10/09 05:49:45;;;;;;;;;;;15.40;99.90;;;;;;2616403;54;19943;-70
2023/10/09 06:06:01;;;;;;;;;;;15.40;99.90;;;;;;2616263;54;19963;-69
2023/10/09 06:14:12;;;;;;;;;;;15.40;99.90;;;;;;2616193;54;19945;-69
2023/10/09 06:16:46;;;;;;;;;;;15.40;99.90;;;;;;2615493;46;19963;-70
2023/10/09 06:19:26;;;;;;;;;;;15.40;99.90;;;;;;2616599;54;19946;-71
2023/10/09 06:24:41;;;;;;;;;;;15.40;99.90;;;;;;2616105;47;19954;-70
2023/10/09 06:27:13;;;;;;;;;;;15.40;99.90;;;;;;2616376;47;19942;-71
2023/10/09 06:30:14;;;;;;;;;;;15.40;99.90;;;;;;2616468;47;19946;-72
2023/10/09 06:32:50;;;;;;;;;;;15.40;99.90;;;;;;2615225;54;19947;-71
2023/10/09 06:35:21;;;;;;;;;;;15.40;99.90;;;;;;2615302;54;20477;-70
2023/10/09 06:43:26;;;;;;;;;;;15.40;99.90;;;;;;2616434;54;19939;-70
2023/10/09 06:46:28;;;;;;;;;;;15.40;99.90;;;;;;2615851;54;19938;-71
2023/10/09 06:48:55;;;;;;;;;;;15.40;99.90;;;;;;2616869;54;20030;-74
2023/10/09 06:54:15;;;;;;;;;;;15.50;99.90;;;;;;2616689;47;19945;-76
2023/10/09 06:59:41;;;;;;;;;;;15.50;99.90;;;;;;2616687;50;19938;-71
2023/10/09 07:04:54;;;;;;;;;;;15.60;99.90;;;;;;2617578;47;19953;-72
2023/10/09 07:07:24;;;;;;;;;;;15.60;99.90;;;;;;2617054;54;20747;-69
2023/10/09 07:12:42;;;;;;;;;;;15.70;99.90;;;;;;2616722;47;19946;-72
2023/10/09 07:20:58;;;;;;;;;;;15.70;99.90;;;;;;2617230;54;19954;-71
2023/10/09 07:23:32;;;;;;;;;;;15.80;99.90;;;;;;2616646;54;19942;-72
2023/10/09 07:26:17;;;;;;;;;;;15.80;99.90;;;;;;2616922;54;20034;-73
2023/10/09 07:28:48;;;;;;;;;;;15.80;99.90;;;;;;2617438;47;19943;-73
2023/10/09 07:31:24;;;;;;;;;;;15.80;99.90;;;;;;2616339;54;20464;-72
2023/10/09 07:33:56;;;;;;;;;;;15.90;99.90;;;;;;2617000;54;19946;-71
2023/10/09 07:36:37;;;;;;;;;;;15.90;99.90;;;;;;2617149;47;19947;-72
2023/10/09 07:39:17;;;;;;;;;;;15.90;99.90;;;;;;2616724;54;19963;-71
2023/10/09 07:41:56;;;;;;;;;;;16.00;99.90;;;;;;2616438;54;19958;-71
2023/10/09 07:44:42;;;;;;;;;;;16.10;99.90;;;;;;2617205;54;19946;-71
2023/10/09 07:47:19;;;;;;;;;;;16.10;99.90;;;;;;2616161;54;19943;-71
2023/10/09 07:49:59;;;;;;;;;;;16.20;99.90;;;;;;2617231;54;20060;-71
2023/10/09 07:52:29;;;;;;;;;;;16.20;99.90;;;;;;2616400;54;19946;-71
2023/10/09 07:55:06;;;;;;;;;;;16.20;99.90;;;;;;2617132;47;19939;-70
2023/10/09 07:57:42;;;;;;;;;;;16.30;99.90;;;;;;2617250;54;19947;-72
2023/10/09 08:00:36;;;;;;;;;;;16.30;99.90;;;;;;2616973;47;20006;-71
2023/10/09 08:03:23;;;;;;;;;;;16.30;99.90;;;;;;2616835;54;19938;-71
2023/10/09 08:06:06;;;;;;;;;;;16.40;99.90;;;;;;2617168;54;19987;-71
2023/10/09 08:09:17;;;;;;;;;;;16.50;99.90;;;;;;2617378;39;20349;-72
2023/10/09 08:11:59;;;;;;;;;;;16.50;99.90;;;;;;2616498;54;19938;-72
2023/10/09 08:14:45;;;;;;;;;;;16.60;99.90;;;;;;2616496;39;20346;-72
2023/10/09 08:17:15;;;;;;;;;;;16.00;99.90;;;;;;2616230;54;20001;-72
2023/10/09 08:19:57;;;;;;;;;;;16.70;99.90;;;;;;2616846;54;19945;-71
2023/10/09 08:22:42;;;;;;;;;;;16.80;99.90;;;;;;2615611;47;19947;-72
2023/10/09 08:27:57;;;;;;;;;;;16.90;99.90;;;;;;2615721;54;19946;-72
2023/10/09 08:36:01;;;;;;;;;;;17.00;99.90;;;;;;2616470;51;19953;-70
2023/10/09 08:38:33;;;;;;;;;;;17.00;99.90;;;;;;2616175;54;19939;-72
2023/10/09 08:41:15;;;;;;;;;;;17.00;99.90;;;;;;2616085;54;19947;-74
2023/10/09 08:43:55;;;;;;;;;;;17.10;99.90;;;;;;2617282;47;19953;-71
2023/10/09 08:46:26;;;;;;;;;;;17.20;99.90;;;;;;2616242;47;19954;-72
2023/10/09 08:48:58;;;;;;;;;;;17.20;99.90;;;;;;2616548;54;19938;-72
2023/10/09 08:51:30;;;;;;;;;;;17.20;99.90;;;;;;2616592;54;19946;-72
2023/10/09 08:54:00;;;;;;;;;;;17.30;99.90;;;;;;2616125;54;19947;-70
2023/10/09 08:56:30;;;;;;;;;;;17.30;99.90;;;;;;2616497;54;19950;-71
2023/10/09 08:59:02;;;;;;;;;;;17.30;99.90;;;;;;2615795;54;19947;-71
2023/10/09 09:01:32;;;;;;;;;;;17.30;99.90;;;;;;2615984;39;20319;-73
2023/10/09 09:04:02;;;;;;;;;;;17.30;99.90;;;;;;2616182;54;19946;-71
2023/10/09 09:06:41;;;;;;;;;;;17.40;99.90;;;;;;2617315;54;20465;-70
2023/10/09 09:09:16;;;;;;;;;;;17.40;99.90;;;;;;2618218;31;20482;-70
2023/10/09 09:11:52;;;;;;;;;;;17.40;99.90;;;;;;2616698;54;19953;-72
2023/10/09 09:14:22;;;;;;;;;;;17.40;99.90;;;;;;2616659;54;19946;-72
2023/10/09 09:16:52;;;;;;;;;;;17.50;99.90;;;;;;2616405;54;19953;-69
2023/10/09 09:19:33;;;;;;;;;;;17.50;99.90;;;;;;2616958;54;19947;-70
2023/10/09 09:22:11;;;;;;;;;;;17.60;99.90;;;;;;2616117;47;19981;-70
2023/10/09 09:24:45;;;;;;;;;;;17.60;99.90;;;;;;2616786;54;20033;-71
2023/10/09 09:27:21;;;;;;;;;;;17.60;99.90;;;;;;2616632;50;19954;-70
2023/10/09 09:29:55;;;;;;;;;;;17.60;99.90;;;;;;2616518;54;19946;-71
2023/10/09 09:32:29;;;;;;;;;;;17.60;99.90;;;;;;2615717;39;20254;-71
2023/10/09 09:35:01;;;;;;;;;;;17.70;99.90;;;;;;2616569;54;19953;-70
2023/10/09 09:37:50;;;;;;;;;;;17.70;99.90;;;;;;2616584;54;19954;-71
2023/10/09 09:40:30;;;;;;;;;;;17.70;99.90;;;;;;2616607;54;19954;-70
2023/10/09 09:43:05;;;;;;;;;;;17.70;99.90;;;;;;2615911;54;19954;-69
2023/10/09 09:45:35;;;;;;;;;;;17.70;99.90;;;;;;2616804;54;19939;-72
2023/10/09 09:48:05;;;;;;;;;;;17.80;99.90;;;;;;2616387;54;19939;-71
2023/10/09 09:50:43;;;;;;;;;;;17.80;99.90;;;;;;2616796;54;19943;-70
2023/10/09 09:53:18;;;;;;;;;;;17.80;99.90;;;;;;2615859;54;19953;-70
2023/10/09 09:55:59;;;;;;;;;;;17.90;99.90;;;;;;2616411;47;19951;-70
2023/10/09 09:58:32;;;;;;;;;;;17.90;99.90;;;;;;2616564;54;19947;-70
2023/10/09 10:01:08;;;;;;;;;;;17.90;99.90;;;;;;2615532;54;20036;-70
2023/10/09 10:03:43;;;;;;;;;;;18.00;99.90;;;;;;2616438;54;19969;-70
2023/10/09 10:06:18;;;;;;;;;;;18.00;99.90;;;;;;2616421;54;19987;-72
2023/10/09 10:08:52;;;;;;;;;;;18.00;99.90;;;;;;2616202;54;19950;-69
2023/10/09 10:11:40;;;;;;;;;;;18.00;99.90;;;;;;2615828;54;19951;-70
2023/10/09 10:14:11;;;;;;;;;;;18.10;99.90;;;;;;2616065;54;19972;-71
2023/10/09 10:16:56;;;;;;;;;;;18.10;99.90;;;;;;2616097;54;19939;-70
2023/10/09 10:19:29;;;;;;;;;;;18.20;99.90;;;;;;2616338;54;19977;-70
2023/10/09 10:22:01;;;;;;;;;;;18.20;99.90;;;;;;2616001;54;20054;-70
2023/10/09 10:24:54;;;;;;;;;;;18.30;99.90;;;;;;2616036;54;19946;-71
2023/10/09 10:27:27;;;;;;;;;;;18.30;99.90;;;;;;2616315;54;20042;-71
2023/10/09 10:30:12;;;;;;;;;;;18.40;99.90;;;;;;2616816;47;19951;-71
2023/10/09 10:32:56;;;;;;;;;;;18.40;99.90;;;;;;2615667;54;19939;-70
2023/10/09 10:35:44;;;;;;;;;;;18.50;99.90;;;;;;2616140;47;19950;-70
2023/10/09 10:38:32;;;;;;;;;;;18.50;99.90;;;;;;2616817;31;20408;-70
2023/10/09 10:41:22;;;;;;;;;;;19.30;99.90;;;;;;2616249;54;19946;-70
2023/10/09 10:43:59;;;;;;;;;;;18.70;99.90;;;;;;2614679;54;19939;-70
2023/10/09 10:46:37;;;;;;;;;;;18.90;99.90;;;;;;2619569;47;19939;-70
2023/10/09 10:49:20;;;;;;;;;;;18.90;99.90;;;;;;2616770;54;19946;-70
2023/10/09 10:52:01;;;;;;;;;;;19.00;99.90;;;;;;2619835;47;20026;-70
2023/10/09 10:57:28;;;;;;;;;;;19.30;99.90;;;;;;2616459;47;19947;-70
2023/10/09 11:00:12;;;;;;;;;;;19.40;99.90;;;;;;2616144;47;19991;-70
2023/10/09 11:02:40;;;;;;;;;;;19.40;99.90;;;;;;2615378;46;19989;-71
2023/10/09 11:07:56;;;;;;;;;;;19.60;99.90;;;;;;2615881;54;19954;-71
2023/10/09 11:10:31;;;;;;;;;;;19.60;99.90;;;;;;2616557;54;19947;-73
2023/10/09 11:15:47;;;;;;;;;;;19.80;99.90;;;;;;2616181;54;19946;-71
2023/10/09 11:18:25;;;;;;;;;;;19.90;99.90;;;;;;2615385;54;19950;-72
2023/10/09 11:23:53;;;;;;;;;;;20.30;99.90;;;;;;2615564;54;19939;-72
2023/10/09 11:26:25;;;;;;;;;;;20.40;99.90;;;;;;2616343;54;19959;-71
2023/10/09 11:29:23;;;;;;;;;;;20.50;99.90;;;;;;2615852;54;19950;-70
2023/10/09 11:31:59;;;;;;;;;;;21.00;99.90;;;;;;2615972;39;20473;-70
2023/10/09 11:34:32;;;;;;;;;;;20.10;99.90;;;;;;2616049;54;19976;-71
2023/10/09 11:37:00;;;;;;;;;;;20.80;99.90;;;;;;2616946;54;19946;-71
2023/10/09 11:39:34;;;;;;;;;;;20.90;99.90;;;;;;2617544;54;19970;-70
2023/10/09 11:42:04;;;;;;;;;;;20.90;99.90;;;;;;2616300;47;19942;-71
2023/10/09 11:44:40;;;;;;;;;;;20.90;99.90;;;;;;2616826;54;19939;-70
2023/10/09 11:50:11;;;;;;;;;;;21.00;99.90;;;;;;2616869;54;19938;-69
2023/10/09 11:52:56;;;;;;;;;;;21.20;99.90;;;;;;2615630;46;19950;-71
2023/10/09 11:55:28;;;;;;;;;;;21.30;99.90;;;;;;2615513;47;20075;-71
2023/10/09 11:57:58;;;;;;;;;;;21.50;99.90;;;;;;2617026;39;20044;-69
2023/10/09 12:00:30;;;;;;;;;;;21.60;99.90;;;;;;2615603;54;19939;-69
2023/10/09 12:03:05;;;;;;;;;;;21.60;99.90;;;;;;2605557;39;20444;-71
2023/10/09 12:05:35;;;;;;;;;;;21.50;99.90;;;;;;2605154;54;19977;-70
2023/10/09 12:08:08;;;;;;;;;;;21.60;99.90;;;;;;2604805;54;19947;-70
2023/10/09 12:10:38;;;;;;;;;;;21.60;99.90;;;;;;2604917;47;19947;-69
2023/10/09 12:13:08;;;;;;;;;;;21.70;99.90;;;;;;2605410;54;19953;-70
2023/10/09 12:15:41;;;;;;;;;;;21.70;99.90;;;;;;2604459;54;20462;-70
2023/10/09 12:18:18;;;;;;;;;;;21.80;99.90;;;;;;2606246;39;20353;-70
2023/10/09 12:20:50;;;;;;;;;;;21.90;99.90;;;;;;2605467;47;20042;-70
2023/10/09 12:23:20;;;;;;;;;;;21.90;99.90;;;;;;2605958;54;19954;-70
2023/10/09 12:25:51;;;;;;;;;;;21.90;99.90;;;;;;2616439;39;20360;-72
2023/10/09 12:28:21;;;;;;;;;;;21.90;99.90;;;;;;2616768;54;19991;-73
2023/10/09 12:30:54;;;;;;;;;;;21.90;99.90;;;;;;2616082;54;19966;-72
2023/10/09 12:33:27;;;;;;;;;;;21.90;99.90;;;;;;2616167;54;19945;-73
2023/10/09 12:35:59;;;;;;;;;;;21.90;99.90;;;;;;2616928;47;19961;-72
2023/10/09 12:38:34;;;;;;;;;;;21.90;99.90;;;;;;2616171;47;19946;-72
2023/10/09 12:41:08;;;;;;;;;;;21.90;99.90;;;;;;2616640;47;19966;-71
2023/10/09 12:43:42;;;;;;;;;;;21.90;99.90;;;;;;2616296;54;20465;-72
2023/10/09 12:46:16;;;;;;;;;;;21.80;99.90;;;;;;2616891;54;19943;-73
2023/10/09 12:48:47;;;;;;;;;;;21.80;99.90;;;;;;2616231;47;19953;-71
2023/10/09 12:51:18;;;;;;;;;;;21.80;99.90;;;;;;2616215;47;20442;-72
2023/10/09 12:53:48;;;;;;;;;;;22.10;99.90;;;;;;2615388;54;20461;-73
2023/10/09 12:56:18;;;;;;;;;;;21.90;99.90;;;;;;2616393;54;20084;-71
2023/10/09 12:58:56;;;;;;;;;;;21.90;99.90;;;;;;2616427;47;19946;-71
2023/10/09 13:01:31;;;;;;;;;;;21.80;99.90;;;;;;2615506;54;19970;-72
2023/10/09 13:04:11;;;;;;;;;;;21.90;99.90;;;;;;2616521;54;20037;-71
2023/10/09 13:06:43;;;;;;;;;;;21.90;99.90;;;;;;2616638;54;19946;-71
2023/10/09 13:09:14;;;;;;;;;;;21.90;99.90;;;;;;2616284;47;20026;-72
2023/10/09 13:11:48;;;;;;;;;;;21.90;99.90;;;;;;2615838;54;19938;-72
2023/10/09 13:14:21;;;;;;;;;;;22.00;99.90;;;;;;2616997;54;20430;-73
2023/10/09 13:16:59;;;;;;;;;;;21.90;99.90;;;;;;2617265;39;20342;-73
2023/10/09 13:19:29;;;;;;;;;;;22.00;99.90;;;;;;2617422;54;19950;-71
2023/10/09 13:22:02;;;;;;;;;;;22.00;99.90;;;;;;2617980;49;19955;-72
2023/10/09 13:24:32;;;;;;;;;;;22.00;99.90;;;;;;2617893;54;19965;-73
2023/10/09 13:27:04;;;;;;;;;;;22.00;99.90;;;;;;2617644;47;19970;-74
2023/10/09 13:29:34;;;;;;;;;;;22.00;99.90;;;;;;2617127;39;20329;-74
2023/10/09 13:32:13;;;;;;;;;;;22.00;99.90;;;;;;2616205;47;20415;-73
2023/10/09 13:34:45;;;;;;;;;;;22.10;99.90;;;;;;2616638;54;19954;-75
2023/10/09 13:37:21;;;;;;;;;;;22.10;99.90;;;;;;2616599;39;20399;-73
2023/10/09 13:39:56;;;;;;;;;;;22.10;99.90;;;;;;2616729;47;19946;-74
2023/10/09 13:42:26;;;;;;;;;;;22.10;99.90;;;;;;2616646;39;20337;-74
2023/10/09 13:44:56;;;;;;;;;;;22.10;99.90;;;;;;2616368;54;19995;-67
2023/10/09 13:47:31;;;;;;;;;;;22.10;99.90;;;;;;2616175;54;19953;-72
2023/10/09 13:50:01;;;;;;;;;;;22.10;99.90;;;;;;2615551;54;20490;-69
2023/10/09 13:52:31;;;;;;;;;;;22.10;99.90;;;;;;2615564;54;19938;-69
2023/10/09 13:55:15;;;;;;;;;;;22.10;99.90;;;;;;2616359;54;20033;-69
2023/10/09 13:57:45;;;;;;;;;;;22.10;99.90;;;;;;2616552;47;19946;-69
2023/10/09 14:00:19;;;;;;;;;;;22.10;99.90;;;;;;2616038;47;20010;-69
2023/10/09 14:02:51;;;;;;;;;;;22.10;99.90;;;;;;2615608;54;19953;-69
2023/10/09 14:05:21;;;;;;;;;;;22.10;99.90;;;;;;2615885;54;19939;-68
2023/10/09 14:07:54;;;;;;;;;;;22.10;99.90;;;;;;2616035;54;20041;-70
2023/10/09 14:10:28;;;;;;;;;;;22.10;99.90;;;;;;2616075;54;20482;-68
2023/10/09 14:12:58;;;;;;;;;;;22.10;99.90;;;;;;2615593;54;19953;-68
2023/10/09 14:15:28;;;;;;;;;;;22.10;99.90;;;;;;2615908;54;20061;-68
2023/10/09 14:18:02;;;;;;;;;;;22.10;99.90;;;;;;2616298;54;19939;-71
2023/10/09 14:20:34;;;;;;;;;;;22.10;99.90;;;;;;2615651;54;20042;-68
2023/10/09 14:23:12;;;;;;;;;;;22.10;99.90;;;;;;2615086;54;19973;-67
2023/10/09 14:25:43;;;;;;;;;;;22.10;99.90;;;;;;2616323;54;19957;-68
2023/10/09 14:28:18;;;;;;;;;;;22.10;99.90;;;;;;2616332;54;20026;-68
2023/10/09 14:30:56;;;;;;;;;;;22.10;99.90;;;;;;2616327;54;19939;-69
2023/10/09 14:33:35;;;;;;;;;;;22.10;99.90;;;;;;2615728;54;19945;-68
2023/10/09 14:36:07;;;;;;;;;;;22.10;99.90;;;;;;2615004;54;19970;-69
2023/10/09 14:38:38;;;;;;;;;;;22.00;99.90;;;;;;2615489;54;19939;-70
2023/10/09 14:41:12;;;;;;;;;;;22.00;99.90;;;;;;2615767;54;19939;-70
2023/10/09 14:43:42;;;;;;;;;;;22.00;99.90;;;;;;2615962;54;19947;-69
2023/10/09 14:46:16;;;;;;;;;;;22.10;99.90;;;;;;2616112;39;20396;-69
2023/10/09 14:48:48;;;;;;;;;;;22.10;99.90;;;;;;2615697;54;19954;-69
2023/10/09 14:51:22;;;;;;;;;;;22.10;99.90;;;;;;2615287;54;19947;-70
2023/10/09 14:53:53;;;;;;;;;;;22.10;99.90;;;;;;2615043;47;19938;-68
2023/10/09 14:56:28;;;;;;;;;;;22.00;99.90;;;;;;2615887;47;19946;-70
2023/10/09 14:58:59;;;;;;;;;;;22.00;99.90;;;;;;2616092;39;20341;-71
2023/10/09 15:01:31;;;;;;;;;;;22.00;99.90;;;;;;2615129;47;19947;-71
2023/10/09 15:04:04;;;;;;;;;;;22.00;99.90;;;;;;2614562;47;19946;-70
2023/10/09 15:06:35;;;;;;;;;;;21.90;99.90;;;;;;2613202;54;19946;-69
2023/10/09 15:09:21;;;;;;;;;;;21.90;99.90;;;;;;2616922;39;20344;-73
2023/10/09 15:11:54;;;;;;;;;;;21.80;99.90;;;;;;2616368;54;19939;-73
2023/10/09 15:14:24;;;;;;;;;;;21.80;99.90;;;;;;2619685;47;19951;-76
2023/10/09 15:16:53;;;;;;;;;;;21.70;99.90;;;;;;2621117;47;19956;-72
2023/10/09 15:19:31;;;;;;;;;;;21.70;99.90;;;;;;2616091;47;19946;-71
2023/10/09 15:22:08;;;;;;;;;;;21.60;99.90;;;;;;2619885;54;19938;-78
2023/10/09 15:24:37;;;;;;;;;;;21.60;99.90;;;;;;2620464;47;19951;-72
2023/10/09 15:27:09;;;;;;;;;;;21.50;99.90;;;;;;2616406;54;19946;-70
2023/10/09 15:29:44;;;;;;;;;;;21.50;99.90;;;;;;2616584;54;19974;-71
2023/10/09 15:32:22;;;;;;;;;;;21.40;99.90;;;;;;2616470;54;20449;-71
2023/10/09 15:34:57;;;;;;;;;;;21.40;99.90;;;;;;2617243;39;20343;-70
2023/10/09 15:37:26;;;;;;;;;;;21.40;99.90;;;;;;2616817;54;20068;-70
2023/10/09 15:39:57;;;;;;;;;;;21.40;99.90;;;;;;2618269;54;20522;-72
2023/10/09 15:42:26;;;;;;;;;;;21.40;99.90;;;;;;2616601;47;19938;-69
2023/10/09 15:44:56;;;;;;;;;;;21.40;99.90;;;;;;2616020;46;19947;-68
2023/10/09 15:47:25;;;;;;;;;;;21.40;99.90;;;;;;2616624;54;19950;-69
2023/10/09 15:49:58;;;;;;;;;;;21.40;99.90;;;;;;2616931;47;19945;-70
2023/10/09 15:52:27;;;;;;;;;;;21.40;99.90;;;;;;2616643;54;19946;-70
2023/10/09 15:54:57;;;;;;;;;;;21.40;99.90;;;;;;2617266;54;19954;-70
2023/10/09 15:57:26;;;;;;;;;;;21.30;99.90;;;;;;2618036;54;19947;-69
2023/10/09 16:00:01;;;;;;;;;;;21.30;99.90;;;;;;2617296;54;20002;-70
2023/10/09 16:02:30;;;;;;;;;;;21.20;99.90;;;;;;2616219;54;19947;-69
2023/10/09 16:05:05;;;;;;;;;;;21.10;99.90;;;;;;2617104;47;19938;-71
2023/10/09 16:10:15;;;;;;;;;;;21.10;99.90;;;;;;2616256;54;20471;-72
2023/10/09 16:12:46;;;;;;;;;;;21.10;99.90;;;;;;2615372;54;19958;-73
2023/10/09 16:15:17;;;;;;;;;;;21.00;99.90;;;;;;2615769;47;19950;-71
2023/10/09 16:17:49;;;;;;;;;;;21.00;99.90;;;;;;2615574;54;20462;-71
2023/10/09 16:20:25;;;;;;;;;;;21.00;99.90;;;;;;2616108;54;19957;-69
2023/10/09 16:22:55;;;;;;;;;;;21.00;99.90;;;;;;2610659;47;19946;-69
2023/10/09 16:25:26;;;;;;;;;;;20.90;99.90;;;;;;2602640;54;19954;-70
2023/10/09 16:27:58;;;;;;;;;;;20.90;99.90;;;;;;2604310;54;19958;-69
2023/10/09 16:30:27;;;;;;;;;;;20.80;99.90;;;;;;2603917;47;19997;-70
2023/10/09 16:32:57;;;;;;;;;;;20.80;99.90;;;;;;2604317;54;19954;-70
2023/10/09 16:35:34;;;;;;;;;;;20.80;99.90;;;;;;2604631;54;19953;-70
2023/10/09 16:38:05;;;;;;;;;;;20.70;99.90;;;;;;2604791;54;19953;-69
2023/10/09 16:40:34;;;;;;;;;;;20.70;99.90;;;;;;2605200;54;19946;-72
2023/10/09 16:43:05;;;;;;;;;;;20.70;99.90;;;;;;2604588;47;20442;-72
2023/10/09 16:45:43;;;;;;;;;;;20.50;99.90;;;;;;2604293;54;20454;-73
2023/10/09 16:48:15;;;;;;;;;;;20.70;99.90;;;;;;2605695;54;19942;-73
2023/10/09 16:50:49;;;;;;;;;;;20.60;99.90;;;;;;2605210;54;19947;-71
2023/10/09 16:53:19;;;;;;;;;;;20.60;99.90;;;;;;2604216;54;19947;-71
2023/10/09 16:55:56;;;;;;;;;;;20.50;99.90;;;;;;2604837;51;19946;-72
2023/10/09 16:58:29;;;;;;;;;;;20.10;99.90;;;;;;2604427;54;19939;-71
2023/10/09 17:01:00;;;;;;;;;;;20.40;99.90;;;;;;2603913;54;20041;-72
2023/10/09 17:03:30;;;;;;;;;;;20.40;99.90;;;;;;2605486;39;20362;-71
2023/10/09 17:06:04;;;;;;;;;;;20.30;99.90;;;;;;2605597;47;19946;-71
2023/10/09 17:08:39;;;;;;;;;;;20.30;99.90;;;;;;2605603;39;20346;-71
2023/10/09 17:11:11;;;;;;;;;;;20.30;99.90;;;;;;2605159;54;19958;-73
2023/10/09 17:13:44;;;;;;;;;;;19.80;99.90;;;;;;2605915;39;20358;-72
2023/10/09 17:16:16;;;;;;;;;;;20.20;99.90;;;;;;2605123;39;20375;-71
2023/10/09 17:18:47;;;;;;;;;;;20.10;99.90;;;;;;2605480;47;20046;-71
2023/10/09 17:21:23;;;;;;;;;;;20.10;99.90;;;;;;2603467;47;19954;-71
2023/10/09 17:23:53;;;;;;;;;;;20.00;99.90;;;;;;2604441;54;19977;-72
2023/10/09 17:26:23;;;;;;;;;;;20.00;99.90;;;;;;2605522;54;19955;-71
2023/10/09 17:28:54;;;;;;;;;;;20.00;99.90;;;;;;2605621;54;19954;-71
2023/10/09 17:31:26;;;;;;;;;;;19.90;99.90;;;;;;2604667;51;20039;-73
2023/10/09 17:33:57;;;;;;;;;;;19.90;99.90;;;;;;2604222;54;19977;-72
2023/10/09 17:36:29;;;;;;;;;;;19.90;99.90;;;;;;2605987;54;19954;-72
2023/10/09 17:39:04;;;;;;;;;;;19.80;99.90;;;;;;2604933;54;19966;-70
2023/10/09 17:41:34;;;;;;;;;;;19.80;99.90;;;;;;2604487;54;19953;-69
2023/10/09 17:44:04;;;;;;;;;;;19.80;99.90;;;;;;2604465;54;19947;-69
2023/10/09 17:46:34;;;;;;;;;;;19.80;99.90;;;;;;2605357;54;19946;-69
2023/10/09 17:49:06;;;;;;;;;;;19.80;99.90;;;;;;2605363;54;20065;-73
2023/10/09 17:51:38;;;;;;;;;;;19.70;99.90;;;;;;2605256;54;19979;-71
2023/10/09 17:54:09;;;;;;;;;;;19.70;99.90;;;;;;2605867;47;20014;-74
2023/10/09 17:56:40;;;;;;;;;;;19.70;99.90;;;;;;2605403;54;19999;-74
2023/10/09 17:59:11;;;;;;;;;;;19.70;99.90;;;;;;2605852;54;20418;-74
2023/10/09 18:01:41;;;;;;;;;;;19.70;99.90;;;;;;2605038;47;19946;-73
2023/10/09 18:04:13;;;;;;;;;;;19.60;99.90;;;;;;2605829;47;19958;-74
2023/10/09 18:06:48;;;;;;;;;;;19.00;99.90;;;;;;2605063;54;20076;-75
2023/10/09 18:09:17;;;;;;;;;;;19.60;99.90;;;;;;2604565;47;19950;-74
2023/10/09 18:11:48;;;;;;;;;;;19.50;99.90;;;;;;2605126;47;19985;-72
2023/10/09 18:14:18;;;;;;;;;;;19.50;99.90;;;;;;2606179;39;20413;-74
2023/10/09 18:16:48;;;;;;;;;;;19.50;99.90;;;;;;2605803;47;19958;-75
2023/10/09 18:19:20;;;;;;;;;;;19.50;99.90;;;;;;2604796;54;20030;-73
2023/10/09 18:21:52;;;;;;;;;;;19.50;99.90;;;;;;2605485;47;19950;-74
2023/10/09 18:24:23;;;;;;;;;;;19.50;99.90;;;;;;2605736;54;19954;-72
2023/10/09 18:26:52;;;;;;;;;;;19.40;99.90;;;;;;2606726;47;19957;-75
2023/10/09 18:29:24;;;;;;;;;;;19.40;99.90;;;;;;2606749;47;19953;-73
2023/10/09 18:31:54;;;;;;;;;;;19.40;99.90;;;;;;2605058;54;19957;-75
2023/10/09 18:34:26;;;;;;;;;;;19.40;99.90;;;;;;2606559;53;19954;-76
2023/10/09 18:36:58;;;;;;;;;;;19.40;99.90;;;;;;2608276;54;19951;-74
2023/10/09 18:39:30;;;;;;;;;;;19.30;99.90;;;;;;2606080;39;20349;-69
2023/10/09 18:42:00;;;;;;;;;;;19.30;99.90;;;;;;2604697;54;19962;-69
2023/10/09 18:44:29;;;;;;;;;;;19.30;99.90;;;;;;2606215;47;19946;-69
2023/10/09 18:46:59;;;;;;;;;;;19.30;99.90;;;;;;2607128;54;19983;-69
2023/10/09 18:49:29;;;;;;;;;;;19.20;99.90;;;;;;2607416;54;19971;-68
2023/10/09 18:52:03;;;;;;;;;;;19.30;99.90;;;;;;2606533;54;19946;-68
2023/10/09 18:54:35;;;;;;;;;;;19.30;99.90;;;;;;2606959;54;19954;-68
2023/10/09 18:57:05;;;;;;;;;;;19.20;99.90;;;;;;2606857;54;19950;-68
2023/10/09 18:59:35;;;;;;;;;;;19.20;99.90;;;;;;2607602;54;19954;-71